Time;durP1;ratioP1;P1;durP2;ratioP2;P2;SDS_P1;SDS_P2;PMS_P1;PMS_P2;Temp;Humidity;BMP_temperature;BMP_pressure;BME280_temperature;BME280_humidity;BME280_pressure;Samples;Min_cycle;Max_cycle;Signal;HPM_P1;HPM_P2
2022/05/27 00:00:32;;;;;;;3.75;1.60;;;;;;;20.85;50.14;101322.78;2106572;28;20047;-71
2022/05/27 00:01:55;;;;;;;9.23;2.50;;;;;;;20.86;50.07;101322.75;2119369;27;20566;-71
2022/05/27 00:03:19;;;;;;;7.35;2.08;;;;;;;20.83;50.05;101320.13;2105250;28;20083;-72
2022/05/27 00:04:41;;;;;;;5.88;2.03;;;;;;;20.77;50.38;101320.22;2102646;28;20443;-71
2022/05/27 00:06:03;;;;;;;6.72;2.30;;;;;;;20.72;50.79;101319.44;2104959;28;20139;-71
2022/05/27 00:07:26;;;;;;;3.70;1.85;;;;;;;20.67;51.16;101315.94;2102418;28;20053;-71
2022/05/27 00:08:48;;;;;;;6.90;2.08;;;;;;;20.63;51.18;101315.09;2101764;28;20198;-71
2022/05/27 00:10:12;;;;;;;6.80;2.45;;;;;;;20.62;51.58;101315.09;2110481;28;20075;-71
2022/05/27 00:11:34;;;;;;;5.50;1.98;;;;;;;20.60;51.64;101312.47;2104454;28;20523;-72
2022/05/27 00:12:57;;;;;;;4.53;1.80;;;;;;;20.61;51.92;101316.91;2102529;28;20480;-72
2022/05/27 00:14:19;;;;;;;10.02;2.67;;;;;;;20.61;51.92;101316.91;2102517;28;20052;-72
2022/05/27 00:15:41;;;;;;;3.97;2.00;;;;;;;20.61;51.87;101326.78;2110405;28;20050;-72
2022/05/27 00:17:04;;;;;;;8.45;2.45;;;;;;;20.58;51.97;101330.38;2105034;28;20048;-72
2022/05/27 00:18:27;;;;;;;3.72;1.80;;;;;;;20.58;51.87;101333.06;2112665;27;20142;-71
2022/05/27 00:19:49;;;;;;;5.10;1.75;;;;;;;20.53;52.06;101332.28;2108111;28;20574;-71
2022/05/27 00:21:12;;;;;;;3.63;1.83;;;;;;;20.49;52.10;101316.22;2110544;28;20481;-71
2022/05/27 00:22:34;;;;;;;6.65;2.10;;;;;;;20.46;52.59;101318.97;2104675;28;20617;-71
2022/05/27 00:23:56;;;;;;;7.57;2.70;;;;;;;20.45;52.66;101303.78;2099604;28;20040;-72
2022/05/27 00:25:19;;;;;;;10.90;3.25;;;;;;;20.43;52.99;101302.91;2110610;28;20086;-71
2022/05/27 00:26:41;;;;;;;8.43;1.73;;;;;;;20.44;53.04;101300.22;2105055;28;20480;-71
2022/05/27 00:28:03;;;;;;;5.82;1.77;;;;;;;20.48;53.13;101293.88;2108071;28;20096;-72
2022/05/27 00:29:26;;;;;;;6.38;2.50;;;;;;;20.45;53.17;101306.47;2102056;28;20078;-72
2022/05/27 00:30:48;;;;;;;5.47;2.10;;;;;;;20.40;53.18;101314.59;2102353;28;20546;-72
2022/05/27 00:32:11;;;;;;;5.75;2.40;;;;;;;20.36;53.16;101306.59;2094565;28;20054;-72
2022/05/27 00:33:35;;;;;;;7.32;2.22;;;;;;;20.35;53.55;101307.53;2108038;28;20506;-71
2022/05/27 00:34:58;;;;;;;6.15;1.85;;;;;;;20.33;53.67;101304.00;2101262;28;20391;-72
2022/05/27 00:36:21;;;;;;;7.75;2.70;;;;;;;20.32;53.85;101304.84;2104660;28;20138;-72
2022/05/27 00:37:42;;;;;;;6.80;1.70;;;;;;;20.28;53.91;101296.84;2102318;28;20044;-71
2022/05/27 00:39:05;;;;;;;3.65;1.75;;;;;;;20.29;53.78;101295.06;2110873;28;20046;-72
2022/05/27 00:40:33;;;;;;;3.92;1.63;;;;;;;20.31;53.83;101290.56;2104790;28;20415;-71
2022/05/27 00:41:56;;;;;;;6.25;2.00;;;;;;;20.34;53.56;101285.19;2096325;28;20048;-72
2022/05/27 00:43:18;;;;;;;8.82;2.22;;;;;;;20.39;53.41;101287.78;2102041;28;20561;-72
2022/05/27 00:44:41;;;;;;;3.85;1.70;;;;;;;20.42;53.28;101272.53;2110878;28;20044;-72
2022/05/27 00:46:06;;;;;;;5.35;1.90;;;;;;;20.44;53.13;101280.53;2101966;28;20044;-72
2022/05/27 00:47:33;;;;;;;5.00;2.30;;;;;;;20.35;53.25;101280.72;2104970;28;20048;-72
2022/05/27 00:49:05;;;;;;;6.32;2.42;;;;;;;20.26;53.52;101279.03;2098074;28;20409;-72
2022/05/27 00:50:31;;;;;;;24.15;5.30;;;;;;;20.19;53.96;101270.19;2118230;27;20115;-72
2022/05/27 00:51:59;;;;;;;7.65;2.08;;;;;;;20.21;53.90;101267.50;2110022;28;20047;-71
2022/05/27 00:53:30;;;;;;;8.93;2.10;;;;;;;20.17;54.33;101255.91;2103118;28;20063;-71
2022/05/27 00:54:53;;;;;;;7.25;1.88;;;;;;;20.17;54.26;101252.34;2101923;28;20060;-72
2022/05/27 00:56:17;;;;;;;7.55;3.22;;;;;;;20.19;54.36;101246.06;2107761;28;20559;-71
2022/05/27 00:57:44;;;;;;;7.78;1.98;;;;;;;20.21;54.28;101244.25;2110583;28;20047;-72
2022/05/27 00:59:10;;;;;;;5.13;2.38;;;;;;;20.19;54.05;101240.69;2111382;28;20124;-71
2022/05/27 01:00:32;;;;;;;3.42;2.17;;;;;;;20.14;54.00;101244.38;2102460;28;20513;-71
2022/05/27 01:01:55;;;;;;;6.68;2.00;;;;;;;20.09;53.90;101241.75;2109612;28;20553;-71
2022/05/27 01:03:19;;;;;;;5.25;2.30;;;;;;;20.07;54.02;101248.94;2102429;28;20047;-71
2022/05/27 01:04:44;;;;;;;6.57;2.00;;;;;;;20.07;54.08;101235.53;2104323;28;20087;-72
2022/05/27 01:06:07;;;;;;;6.75;2.03;;;;;;;20.05;53.89;101229.31;2093997;28;20044;-71
2022/05/27 01:07:31;;;;;;;4.80;1.88;;;;;;;20.07;53.79;101223.94;2099719;28;20106;-72
2022/05/27 01:08:55;;;;;;;6.32;2.08;;;;;;;20.11;53.64;101220.28;2106339;28;20080;-71
2022/05/27 01:10:20;;;;;;;5.22;1.75;;;;;;;20.14;53.52;101215.78;2102536;28;20056;-71
2022/05/27 01:12:01;;;;;;;3.55;1.75;;;;;;;20.23;53.28;101207.56;2108618;28;20040;-71
2022/05/27 01:13:39;;;;;;;5.15;2.45;;;;;;;20.33;52.91;101202.97;2112862;28;20388;-71
2022/05/27 01:15:12;;;;;;;6.43;1.75;;;;;;;20.45;52.00;101201.84;2112431;28;20081;-71
2022/05/27 01:16:43;;;;;;;6.85;2.15;;;;;;;20.51;51.85;101196.38;2112030;28;20104;-71
2022/05/27 01:18:18;;;;;;;5.28;1.95;;;;;;;20.44;51.73;101200.97;2111519;28;20040;-71
2022/05/27 01:20:22;;;;;;;4.57;1.67;;;;;;;20.37;51.72;101193.94;2112354;28;20050;-71
2022/05/27 01:22:07;;;;;;;4.10;1.42;;;;;;;20.27;51.75;101187.84;2112950;28;20511;-71
2022/05/27 01:24:02;;;;;;;6.88;1.38;;;;;;;20.28;51.38;101184.22;2097655;28;20351;-71
2022/05/27 01:25:52;;;;;;;4.85;1.80;;;;;;;20.30;51.01;101173.47;2092202;28;20056;-72
2022/05/27 01:27:56;;;;;;;3.70;1.10;;;;;;;20.34;50.29;101175.25;2120022;27;20077;-71
2022/05/27 01:29:48;;;;;;;6.38;1.60;;;;;;;20.39;49.40;101170.66;2111829;28;20032;-70
2022/05/27 01:31:28;;;;;;;3.95;1.50;;;;;;;20.42;49.12;101175.97;2097646;28;20645;-71
2022/05/27 01:33:11;;;;;;;5.88;1.52;;;;;;;20.37;49.29;101171.59;2106153;28;20151;-71
2022/05/27 01:34:47;;;;;;;9.55;1.90;;;;;;;20.29;49.04;101169.00;2106339;28;20109;-71
2022/05/27 01:36:20;;;;;;;3.90;1.55;;;;;;;20.28;48.80;101168.13;2105066;28;20050;-72
2022/05/27 01:37:49;;;;;;;8.10;2.20;;;;;;;20.29;48.67;101175.25;2122535;27;20047;-71
2022/05/27 01:39:20;;;;;;;7.20;1.90;;;;;;;20.31;48.14;101159.16;2106164;28;20143;-71
2022/05/27 01:40:51;;;;;;;4.38;1.30;;;;;;;20.35;47.11;101162.72;2112979;28;20135;-71
2022/05/27 01:42:18;;;;;;;2.13;1.30;;;;;;;20.38;46.76;101162.66;2107873;27;20464;-71
2022/05/27 01:43:43;;;;;;;3.00;1.25;;;;;;;20.43;45.72;101158.06;2121468;27;20388;-71
2022/05/27 01:45:11;;;;;;;4.35;1.70;;;;;;;20.51;45.01;101148.97;2106401;28;20139;-72
2022/05/27 01:46:41;;;;;;;2.85;1.30;;;;;;;20.57;43.85;101153.34;2101984;28;20048;-72
2022/05/27 01:48:12;;;;;;;4.72;1.10;;;;;;;20.58;44.09;101164.06;2110101;28;20051;-71
2022/05/27 01:49:38;;;;;;;8.05;1.38;;;;;;;20.50;44.38;101152.56;2120551;27;20039;-71
2022/05/27 01:51:09;;;;;;;3.08;1.17;;;;;;;20.42;44.82;101154.50;2120672;27;20043;-71
2022/05/27 01:52:38;;;;;;;5.95;1.85;;;;;;;20.37;44.03;101151.03;2122799;27;20365;-71
2022/05/27 01:54:05;;;;;;;7.25;1.15;;;;;;;20.36;43.33;101162.66;2121191;27;20170;-72
2022/05/27 01:55:33;;;;;;;3.80;1.20;;;;;;;20.38;42.77;101154.59;2121029;27;20096;-71
2022/05/27 01:56:59;;;;;;;4.25;1.00;;;;;;;20.41;41.72;101154.56;2121107;27;20494;-72
2022/05/27 01:58:29;;;;;;;4.85;1.13;;;;;;;20.45;41.57;101149.09;2103526;28;20082;-71
2022/05/27 02:00:08;;;;;;;2.72;1.33;;;;;;;20.50;40.88;101136.47;2109016;28;20499;-71
2022/05/27 02:01:35;;;;;;;3.33;1.60;;;;;;;20.51;41.19;101135.56;2105504;28;20137;-71
2022/05/27 02:03:03;;;;;;;3.10;1.65;;;;;;;20.46;41.40;101141.94;2103771;28;20042;-71
2022/05/27 02:04:33;;;;;;;5.40;1.30;;;;;;;20.37;41.58;101137.63;2095852;28;20087;-72
2022/05/27 02:06:01;;;;;;;2.40;1.00;;;;;;;20.33;41.62;101132.34;2102852;28;20040;-72
2022/05/27 02:07:28;;;;;;;3.58;1.15;;;;;;;20.29;41.26;101132.38;2087229;28;20052;-71
2022/05/27 02:08:54;;;;;;;2.65;0.60;;;;;;;20.29;40.77;101136.84;2100574;28;20040;-72
2022/05/27 02:10:21;;;;;;;6.80;1.42;;;;;;;20.28;40.55;101127.91;2095889;28;20044;-71
2022/05/27 02:11:48;;;;;;;2.05;0.90;;;;;;;20.28;40.36;101135.94;2103798;28;20058;-72
2022/05/27 02:13:16;;;;;;;7.00;2.35;;;;;;;20.30;40.27;101135.94;2104077;28;20801;-71
2022/05/27 02:14:42;;;;;;;3.28;1.30;;;;;;;20.23;40.19;101134.28;2112253;28;20085;-72
2022/05/27 02:16:07;;;;;;;4.20;0.98;;;;;;;20.13;40.21;101135.38;2105929;28;20424;-71
2022/05/27 02:17:35;;;;;;;2.80;0.90;;;;;;;20.12;40.28;101130.91;2111942;28;20044;-71
2022/05/27 02:19:04;;;;;;;3.92;1.25;;;;;;;20.13;40.09;101138.03;2104204;28;20040;-71
2022/05/27 02:20:30;;;;;;;1.65;0.80;;;;;;;20.14;40.03;101137.13;2104074;28;20081;-72
2022/05/27 02:21:55;;;;;;;4.35;1.30;;;;;;;20.14;39.82;101140.69;2095150;28;20052;-71
2022/05/27 02:23:22;;;;;;;1.67;0.82;;;;;;;20.15;39.82;101138.91;2101788;28;20085;-71
2022/05/27 02:24:50;;;;;;;2.88;0.82;;;;;;;20.13;39.66;101130.88;2095639;28;20050;-71
2022/05/27 02:26:16;;;;;;;2.53;0.77;;;;;;;20.13;38.97;101135.38;2110152;28;20202;-71
2022/05/27 02:27:43;;;;;;;1.92;0.70;;;;;;;20.13;38.50;101127.31;2111683;28;20054;-71
2022/05/27 02:29:12;;;;;;;3.70;0.70;;;;;;;20.14;37.98;101127.28;2111058;28;20043;-71
2022/05/27 02:30:37;;;;;;;1.13;0.63;;;;;;;20.14;37.78;101126.41;2112570;28;20121;-71
2022/05/27 02:32:08;;;;;;;2.20;0.80;;;;;;;20.14;37.45;101123.72;2102937;28;20551;-71
2022/05/27 02:35:22;;;;;;;1.65;0.70;;;;;;;20.10;37.86;101116.63;2105162;28;20523;-72
2022/05/27 02:36:50;;;;;;;3.53;0.85;;;;;;;20.05;38.01;101110.47;2110881;28;20092;-71
2022/05/27 02:38:12;;;;;;;0.95;0.60;;;;;;;20.02;38.06;101114.09;2111544;28;20086;-71
2022/05/27 02:39:34;;;;;;;;;;;;;;;19.95;38.02;101115.13;2120770;27;20682;-71
2022/05/27 02:41:04;;;;;;;1.60;0.75;;;;;;;19.90;38.16;101123.22;2113898;28;20486;-71
2022/05/27 02:42:33;;;;;;;1.85;0.80;;;;;;;19.83;38.13;101115.31;2112497;28;20052;-70
2022/05/27 02:44:09;;;;;;;2.63;0.60;;;;;;;19.76;38.04;101114.53;2112502;28;20134;-71
2022/05/27 02:45:40;;;;;;;3.40;1.02;;;;;;;19.76;38.00;101108.28;2104894;28;20101;-72
2022/05/27 02:47:09;;;;;;;4.70;1.55;;;;;;;19.78;37.42;101115.41;2111319;28;20048;-72
2022/05/27 02:48:42;;;;;;;4.47;0.50;;;;;;;19.76;37.35;101119.00;2111535;28;20040;-71
2022/05/27 02:50:13;;;;;;;3.22;0.88;;;;;;;19.75;37.24;101111.91;2113121;28;20040;-71
2022/05/27 02:51:46;;;;;;;1.52;0.70;;;;;;;19.78;37.18;101118.06;2098700;28;20496;-72
2022/05/27 02:53:20;;;;;;;2.60;0.68;;;;;;;19.81;36.78;101111.78;2120053;27;20097;-71
2022/05/27 02:54:49;;;;;;;2.67;0.60;;;;;;;19.81;36.88;101110.00;2107022;28;20040;-71
2022/05/27 02:56:16;;;;;;;1.25;0.73;;;;;;;19.85;36.70;101111.72;2103802;28;20040;-71
2022/05/27 02:57:43;;;;;;;3.65;0.73;;;;;;;19.86;36.27;101108.13;2103539;28;20559;-71
2022/05/27 02:59:08;;;;;;;2.83;0.80;;;;;;;19.89;36.35;101104.47;2114243;28;20048;-72
2022/05/27 03:00:34;;;;;;;4.20;0.95;;;;;;;19.93;36.50;101108.00;2105901;28;20052;-72
2022/05/27 03:02:05;;;;;;;2.03;0.90;;;;;;;19.90;36.53;101119.66;2109735;28;20042;-72
2022/05/27 03:03:28;;;;;;;2.90;0.60;;;;;;;19.82;36.60;101117.09;2105484;28;20082;-72
2022/05/27 03:05:00;;;;;;;3.55;0.70;;;;;;;19.73;36.43;101122.63;2103213;28;20379;-72
2022/05/27 03:06:38;;;;;;;1.45;0.80;;;;;;;19.74;36.50;101120.84;2097264;28;20508;-71
2022/05/27 03:08:14;;;;;;;1.73;0.65;;;;;;;19.78;36.17;101122.56;2111466;28;20077;-71
2022/05/27 03:09:50;;;;;;;3.00;0.57;;;;;;;19.79;35.85;101127.88;2104898;28;20079;-72
2022/05/27 03:11:17;;;;;;;3.97;0.85;;;;;;;19.80;35.61;101123.41;2095936;28;20883;-72
2022/05/27 03:12:49;;;;;;;4.18;0.80;;;;;;;19.82;35.45;101122.47;2093284;28;20061;-73
2022/05/27 03:14:35;;;;;;;0.98;0.40;;;;;;;19.86;35.44;101121.53;2094677;28;20081;-73
2022/05/27 03:16:08;;;;;;;2.38;0.68;;;;;;;19.94;35.45;101128.56;2076490;28;20421;-73
2022/05/27 03:17:43;;;;;;;1.17;0.63;;;;;;;19.96;35.58;101132.94;2095788;28;20053;-73
2022/05/27 03:19:24;;;;;;;5.10;0.95;;;;;;;19.98;35.58;101119.53;2104514;28;20175;-73
2022/05/27 03:20:50;;;;;;;2.58;0.80;;;;;;;19.99;35.68;101122.19;2105442;28;20044;-72
2022/05/27 03:22:18;;;;;;;1.92;0.50;;;;;;;20.03;35.55;101126.56;2105598;28;20543;-73
2022/05/27 03:23:55;;;;;;;1.55;0.77;;;;;;;20.07;35.55;101127.44;2112163;28;20044;-73
2022/05/27 03:25:24;;;;;;;2.60;0.80;;;;;;;20.11;35.23;101130.03;2113540;28;20073;-73
2022/05/27 03:26:59;;;;;;;4.28;0.82;;;;;;;20.18;34.97;101125.44;2112027;28;20085;-73
2022/05/27 03:28:39;;;;;;;1.30;0.57;;;;;;;20.25;34.91;101132.44;2103812;28;20138;-73
2022/05/27 03:30:06;;;;;;;3.10;0.80;;;;;;;20.31;34.76;101129.66;2105076;28;20139;-73
2022/05/27 03:31:35;;;;;;;2.30;1.73;;;;;;;20.37;34.72;101134.94;2116790;27;20437;-74
2022/05/27 03:33:05;;;;;;;2.67;0.60;;;;;;;20.43;34.63;101132.13;2105341;28;20044;-73
2022/05/27 03:34:34;;;;;;;5.65;0.77;;;;;;;20.49;34.52;101137.38;2112406;28;20117;-73
2022/05/27 03:36:02;;;;;;;4.35;0.68;;;;;;;20.55;34.35;101131.00;2105274;28;20040;-74
2022/05/27 03:37:32;;;;;;;3.70;0.98;;;;;;;20.62;34.41;101140.72;2104713;28;20480;-73
2022/05/27 03:39:03;;;;;;;3.28;0.70;;;;;;;20.68;34.76;101145.97;2110193;28;20039;-73
2022/05/27 03:40:30;;;;;;;2.95;0.52;;;;;;;20.74;34.68;101147.66;2112389;28;20055;-74
2022/05/27 03:41:55;;;;;;;4.38;0.63;;;;;;;20.81;34.52;101144.78;2119030;27;20039;-73
2022/05/27 03:43:19;;;;;;;0.88;0.60;;;;;;;20.92;34.63;101136.53;2105300;28;20093;-71
2022/05/27 03:44:51;;;;;;;4.35;0.75;;;;;;;21.06;34.30;101146.09;2111459;28;20031;-71
2022/05/27 03:46:26;;;;;;;1.30;0.70;;;;;;;21.17;34.20;101139.63;2111384;28;20101;-71
2022/05/27 03:47:49;;;;;;;3.72;0.80;;;;;;;21.27;34.30;101147.41;2113699;28;20503;-71
2022/05/27 03:49:12;;;;;;;1.83;0.77;;;;;;;21.39;34.24;101140.91;2114232;27;20066;-71
2022/05/27 03:50:35;;;;;;;6.78;3.05;;;;;;;21.48;34.15;101144.25;2119711;27;20514;-71
2022/05/27 03:52:03;;;;;;;7.10;2.30;;;;;;;21.56;34.25;101153.94;2111873;27;20047;-71
2022/05/27 03:54:03;;;;;;;4.55;1.20;;;;;;;21.64;34.16;101152.84;2094790;28;20101;-71
2022/05/27 03:55:13;;;;;;;3.65;1.67;;;;;;;21.77;34.32;101151.66;2113825;28;20077;-71
2022/05/27 03:56:39;;;;;;;3.25;1.30;;;;;;;21.88;34.50;101157.63;2111593;28;20090;-73
2022/05/27 03:58:01;;;;;;;4.25;1.27;;;;;;;22.02;34.56;101159.13;2102755;28;20102;-74
2022/05/27 03:59:24;;;;;;;2.38;0.82;;;;;;;22.13;34.25;101157.94;2110992;28;20483;-73
2022/05/27 04:00:46;;;;;;;3.63;0.80;;;;;;;22.27;34.09;101152.19;2110168;28;20047;-73
2022/05/27 04:02:08;;;;;;;1.95;0.80;;;;;;;22.41;33.80;101159.91;2110809;28;20050;-71
2022/05/27 04:03:31;;;;;;;;;;;;;;;22.51;33.68;101162.28;2111576;28;20108;-71
2022/05/27 04:04:53;;;;;;;1.95;0.70;;;;;;;22.64;33.63;101154.78;2105298;28;20379;-71
2022/05/27 04:06:15;;;;;;;2.35;0.60;;;;;;;22.78;33.73;101157.09;2102237;28;20048;-71
2022/05/27 04:07:37;;;;;;;10.18;1.05;;;;;;;22.92;33.96;101157.59;2102625;28;20043;-71
2022/05/27 04:08:59;;;;;;;3.53;0.90;;;;;;;23.07;34.07;101164.34;2107278;28;20128;-71
2022/05/27 04:10:22;;;;;;;4.40;0.60;;;;;;;23.20;33.89;101155.84;2102133;28;20360;-71
2022/05/27 04:11:46;;;;;;;1.65;0.70;;;;;;;23.32;34.02;101163.56;2108321;28;20470;-71
2022/05/27 04:13:08;;;;;;;1.52;0.70;;;;;;;23.44;34.28;101167.69;2110976;28;20080;-73
2022/05/27 04:14:31;;;;;;;6.20;0.95;;;;;;;23.58;34.64;101157.41;2101912;28;20055;-71
2022/05/27 04:15:53;;;;;;;3.20;0.95;;;;;;;23.72;35.00;101155.16;2098215;28;20048;-71
2022/05/27 04:17:34;;;;;;;4.57;1.20;;;;;;;23.88;35.38;101160.06;2105845;28;20051;-73
2022/05/27 04:18:56;;;;;;;7.85;1.10;;;;;;;24.06;35.37;101159.44;2094906;28;20128;-72
2022/05/27 04:20:20;;;;;;;3.97;0.85;;;;;;;24.23;35.28;101163.34;2104671;28;20052;-72
2022/05/27 04:21:43;;;;;;;3.33;1.10;;;;;;;24.42;34.99;101162.69;2102464;28;20032;-72
2022/05/27 04:23:06;;;;;;;3.30;0.98;;;;;;;24.59;34.43;101163.00;2105126;28;20079;-71
2022/05/27 04:24:28;;;;;;;4.50;1.00;;;;;;;24.76;34.13;101159.69;2102432;28;20036;-71
2022/05/27 04:25:52;;;;;;;7.18;0.90;;;;;;;24.94;33.46;101157.19;2111182;28;20043;-72
2022/05/27 04:27:17;;;;;;;3.67;0.90;;;;;;;25.12;33.32;101154.78;2110812;28;20088;-72
2022/05/27 04:28:39;;;;;;;5.20;1.45;;;;;;;25.33;33.12;101162.06;2102791;28;20093;-71
2022/05/27 04:30:02;;;;;;;4.97;1.38;;;;;;;25.53;32.90;101153.16;2108000;28;20039;-71
2022/05/27 04:31:24;;;;;;;3.80;0.93;;;;;;;25.70;33.05;101150.69;2109807;28;20101;-73
2022/05/27 04:32:46;;;;;;;5.22;1.08;;;;;;;25.90;32.90;101155.28;2100834;28;20051;-72
2022/05/27 04:34:10;;;;;;;4.60;0.85;;;;;;;26.07;32.64;101156.31;2099340;28;20072;-72
2022/05/27 04:35:32;;;;;;;10.80;2.20;;;;;;;26.26;32.17;101151.03;2104809;28;20585;-72
2022/05/27 04:36:54;;;;;;;4.18;0.88;;;;;;;26.45;31.69;101154.69;2105152;28;20051;-71
2022/05/27 04:38:16;;;;;;;5.45;0.90;;;;;;;26.61;31.84;101157.63;2104704;28;20051;-71
2022/05/27 04:39:39;;;;;;;5.07;0.82;;;;;;;26.81;31.71;101159.44;2104856;28;20078;-71
2022/05/27 04:41:03;;;;;;;4.35;0.93;;;;;;;27.04;31.73;101161.13;2105529;28;20536;-71
2022/05/27 04:42:26;;;;;;;4.03;0.98;;;;;;;27.25;31.58;101155.56;2101965;28;20169;-71
2022/05/27 04:43:48;;;;;;;5.55;0.70;;;;;;;27.47;31.78;101154.56;2104950;28;20084;-72
2022/05/27 04:45:11;;;;;;;4.57;0.80;;;;;;;27.69;31.91;101152.59;2102461;28;20139;-73
2022/05/27 04:46:34;;;;;;;5.97;1.17;;;;;;;27.93;31.78;101161.34;2098103;28;20138;-72
2022/05/27 04:47:57;;;;;;;10.70;1.85;;;;;;;28.09;31.64;101168.63;2091362;28;20049;-72
2022/05/27 04:50:59;;;;;;;10.77;1.08;;;;;;;28.55;30.73;101163.63;2110159;28;20055;-72
2022/05/27 04:52:26;;;;;;;4.47;0.95;;;;;;;28.77;30.37;101160.66;2112954;28;20502;-72
2022/05/27 04:53:49;;;;;;;3.67;1.05;;;;;;;28.95;30.17;101172.38;2104855;28;20071;-72
2022/05/27 04:55:14;;;;;;;6.32;0.85;;;;;;;29.14;30.07;101159.53;2102267;28;20531;-72
2022/05/27 04:56:38;;;;;;;6.97;0.98;;;;;;;29.38;29.89;101160.91;2103701;28;20059;-72
2022/05/27 04:58:01;;;;;;;5.28;0.90;;;;;;;29.62;29.41;101164.97;2110443;28;20080;-72
2022/05/27 04:59:24;;;;;;;5.32;1.10;;;;;;;29.83;29.40;101160.13;2110763;28;20569;-72
2022/05/27 05:00:48;;;;;;;7.53;1.08;;;;;;;30.08;29.29;101160.47;2110523;28;20155;-72
2022/05/27 05:02:10;;;;;;;7.95;1.77;;;;;;;30.34;29.35;101168.94;2110608;28;20048;-72
2022/05/27 05:03:32;;;;;;;5.95;1.08;;;;;;;30.53;29.01;101164.16;2112870;28;20549;-72
2022/05/27 05:04:56;;;;;;;8.60;1.58;;;;;;;30.74;29.00;101165.56;2104467;28;20047;-72
2022/05/27 05:06:18;;;;;;;3.97;0.90;;;;;;;30.96;29.11;101169.69;2102800;28;20160;-71
2022/05/27 05:07:41;;;;;;;6.60;1.00;;;;;;;31.11;29.02;101164.19;2101842;28;20052;-72
2022/05/27 05:09:04;;;;;;;8.60;1.20;;;;;;;31.32;28.82;101166.50;2102085;28;20052;-72
2022/05/27 05:10:26;;;;;;;6.47;1.00;;;;;;;31.55;28.73;101168.63;2101956;28;20048;-72
2022/05/27 05:11:50;;;;;;;6.78;1.17;;;;;;;31.74;28.98;101165.59;2110437;28;20377;-73
2022/05/27 05:13:11;;;;;;;5.07;1.02;;;;;;;31.92;28.57;101167.97;2096279;28;20101;-72
2022/05/27 05:14:34;;;;;;;5.60;0.75;;;;;;;32.10;28.72;101174.03;2099346;28;20074;-72
2022/05/27 05:15:55;;;;;;;9.55;0.98;;;;;;;32.33;28.56;101167.94;2093645;28;20102;-73
2022/05/27 05:17:17;;;;;;;12.98;1.25;;;;;;;32.49;28.29;101167.75;2105412;28;20134;-71
2022/05/27 05:18:40;;;;;;;7.18;1.27;;;;;;;32.66;28.12;101164.72;2110291;28;20048;-73
2022/05/27 05:20:01;;;;;;;11.73;1.40;;;;;;;32.78;28.10;101163.00;2110450;28;20056;-72
2022/05/27 05:21:24;;;;;;;16.40;1.65;;;;;;;32.84;28.50;101168.03;2107348;28;20052;-72
2022/05/27 05:22:46;;;;;;;10.80;1.00;;;;;;;32.93;28.78;101164.66;2099704;28;20544;-72
2022/05/27 05:24:08;;;;;;;6.78;0.93;;;;;;;33.13;28.57;101171.44;2107154;28;20048;-72
2022/05/27 05:25:32;;;;;;;13.05;1.20;;;;;;;33.27;28.44;101170.47;2110435;28;20514;-73
2022/05/27 05:26:57;;;;;;;8.95;1.08;;;;;;;33.39;28.82;101172.31;2110756;28;20077;-72
2022/05/27 05:28:18;;;;;;;9.15;1.35;;;;;;;33.58;28.40;101175.44;2110470;28;20051;-72
2022/05/27 05:29:40;;;;;;;;;;;;;;;33.57;28.23;101179.16;2111110;28;20101;-73
2022/05/27 05:31:03;;;;;;;6.00;1.67;;;;;;;33.71;28.07;101183.66;2110125;28;19952;-72
2022/05/27 05:32:25;;;;;;;7.28;1.10;;;;;;;33.73;27.45;101179.81;2110293;28;20106;-72
2022/05/27 05:33:48;;;;;;;10.05;2.15;;;;;;;33.76;26.51;101178.69;2104725;28;20043;-73
2022/05/27 05:35:13;;;;;;;7.32;0.95;;;;;;;33.78;26.47;101180.34;2110517;28;20039;-73
2022/05/27 05:36:35;;;;;;;8.68;1.65;;;;;;;33.82;26.42;101176.38;2104475;28;20051;-73
2022/05/27 05:37:58;;;;;;;7.53;1.17;;;;;;;33.92;26.72;101176.56;2106953;28;20616;-73
2022/05/27 05:39:20;;;;;;;11.25;1.42;;;;;;;34.01;27.19;101182.22;2109647;28;20560;-73
2022/05/27 05:40:43;;;;;;;5.20;1.10;;;;;;;34.08;27.45;101184.50;2109753;28;20079;-73
2022/05/27 05:42:09;;;;;;;7.80;2.03;;;;;;;34.12;28.39;101188.75;2110508;28;20558;-73
2022/05/27 05:43:32;;;;;;;5.05;1.20;;;;;;;34.07;29.08;101180.88;2111074;28;20073;-73
2022/05/27 05:44:55;;;;;;;3.97;0.93;;;;;;;34.06;29.61;101187.38;2109980;28;20039;-73
2022/05/27 05:46:17;;;;;;;4.40;0.70;;;;;;;34.14;29.66;101186.75;2110523;28;20047;-73
2022/05/27 05:47:40;;;;;;;5.40;0.90;;;;;;;34.12;29.69;101189.66;2104776;28;20134;-73
2022/05/27 05:49:01;;;;;;;8.68;1.23;;;;;;;34.11;29.82;101192.50;2096194;28;20473;-74
2022/05/27 05:50:24;;;;;;;6.82;1.05;;;;;;;34.21;29.91;101190.78;2090914;28;20044;-73
2022/05/27 05:51:45;;;;;;;4.88;1.00;;;;;;;34.20;29.71;101197.28;2099472;28;20133;-72
2022/05/27 05:53:08;;;;;;;5.60;1.48;;;;;;;34.21;29.90;101199.00;2109751;28;20707;-74
2022/05/27 05:54:30;;;;;;;3.35;0.90;;;;;;;34.28;29.63;101194.84;2110402;28;20659;-74
2022/05/27 05:55:52;;;;;;;8.25;1.17;;;;;;;34.29;29.56;101196.59;2109712;28;20673;-73
2022/05/27 05:57:16;;;;;;;3.17;1.10;;;;;;;34.30;29.80;101201.09;2106410;28;20329;-73
2022/05/27 05:58:40;;;;;;;7.53;1.20;;;;;;;34.30;30.07;101206.59;2108527;28;20043;-72
2022/05/27 06:00:03;;;;;;;3.60;1.23;;;;;;;34.31;30.76;101198.25;2101591;28;20049;-72
2022/05/27 06:01:33;;;;;;;7.05;1.13;;;;;;;34.34;31.42;101208.97;2102834;28;20373;-73
2022/05/27 06:02:57;;;;;;;3.85;1.10;;;;;;;34.37;31.86;101199.63;2099370;28;20892;-73
2022/05/27 06:04:22;;;;;;;5.53;1.52;;;;;;;34.29;32.39;101205.69;2110602;28;20055;-72
2022/05/27 06:05:47;;;;;;;5.10;1.33;;;;;;;34.20;32.58;101202.78;2103408;28;20100;-73
2022/05/27 06:07:09;;;;;;;6.07;1.50;;;;;;;33.97;32.82;101201.75;2110315;28;20036;-73
2022/05/27 06:08:32;;;;;;;8.20;1.55;;;;;;;33.93;32.91;101201.13;2107552;28;20059;-73
2022/05/27 06:09:54;;;;;;;8.32;1.50;;;;;;;33.98;32.91;101204.38;2108945;28;20044;-73
2022/05/27 06:11:17;;;;;;;4.78;1.38;;;;;;;34.05;32.36;101203.94;2102398;28;20138;-73
2022/05/27 06:12:41;;;;;;;6.28;1.20;;;;;;;34.01;31.90;101206.88;2108952;27;20092;-73
2022/05/27 06:14:03;;;;;;;6.90;2.13;;;;;;;33.92;31.16;101207.59;2103236;28;20044;-73
2022/05/27 06:15:26;;;;;;;6.95;1.33;;;;;;;33.92;30.83;101213.06;2107001;28;20043;-73
2022/05/27 06:16:49;;;;;;;3.90;1.02;;;;;;;33.91;30.41;101208.59;2101025;28;20044;-73
2022/05/27 06:18:13;;;;;;;4.85;1.30;;;;;;;33.97;30.24;101209.97;2101822;28;20152;-73
2022/05/27 06:19:34;;;;;;;5.72;1.15;;;;;;;34.10;30.49;101215.41;2107959;28;20495;-72
2022/05/27 06:20:57;;;;;;;5.88;1.42;;;;;;;34.23;30.86;101217.16;2110966;28;20134;-72
2022/05/27 06:22:20;;;;;;;6.32;1.25;;;;;;;34.44;30.70;101214.63;2107191;28;20044;-73
2022/05/27 06:23:44;;;;;;;2.80;1.00;;;;;;;34.60;30.35;101217.91;2111879;28;20074;-73
2022/05/27 06:25:07;;;;;;;5.82;1.50;;;;;;;34.62;30.25;101218.69;2108544;28;20511;-73
2022/05/27 06:26:29;;;;;;;4.93;1.10;;;;;;;34.56;29.89;101216.41;2102645;28;20048;-73
2022/05/27 06:34:23;;;;;;;6.05;1.10;;;;;;;34.57;29.54;101214.56;2105947;28;20518;-73
2022/05/27 06:34:33;;;;;;;7.43;2.00;;;;;;;34.90;28.58;101216.56;2112734;27;20105;-73
2022/05/27 06:35:56;;;;;;;8.13;1.13;;;;;;;35.08;28.22;101206.84;2113977;28;20734;-73
2022/05/27 06:37:21;;;;;;;7.15;1.30;;;;;;;35.27;28.06;101218.13;2107600;27;20510;-73
2022/05/27 06:38:44;;;;;;;7.60;1.33;;;;;;;35.36;27.76;101216.53;2108711;28;20674;-73
2022/05/27 06:40:08;;;;;;;5.32;1.40;;;;;;;35.37;27.57;101218.28;2100704;28;20342;-73
2022/05/27 06:41:30;;;;;;;7.70;1.17;;;;;;;35.35;27.27;101212.91;2109645;28;20070;-73
2022/05/27 06:42:54;;;;;;;4.15;1.42;;;;;;;35.36;27.74;101225.63;2109014;27;20043;-73
2022/05/27 06:44:17;;;;;;;5.53;1.20;;;;;;;35.29;28.00;101226.25;2099894;28;20077;-72
2022/05/27 06:45:39;;;;;;;2.83;1.20;;;;;;;35.16;28.03;101221.72;2104503;28;20112;-73
2022/05/27 06:47:01;;;;;;;4.95;1.35;;;;;;;35.09;28.27;101225.06;2095714;28;20505;-73
2022/05/27 06:48:24;;;;;;;6.82;1.30;;;;;;;35.08;28.38;101218.69;2110761;27;20054;-73
2022/05/27 06:49:46;;;;;;;4.78;1.90;;;;;;;35.16;28.46;101220.84;2104309;28;20067;-74
2022/05/27 06:51:08;;;;;;;6.25;1.40;;;;;;;35.20;28.14;101219.59;2106806;27;20784;-73